createdAt,value
2022-11-20T00:00:21.347Z,19.80
2022-11-20T00:01:21.347Z,20.70
2022-11-20T00:02:21.410Z,20.30
2022-11-20T00:03:21.297Z,20.00
2022-11-20T00:04:21.288Z,19.80
2022-11-20T00:05:21.278Z,19.80
2022-11-20T00:06:21.287Z,20.30
2022-11-20T00:07:21.345Z,20.60
2022-11-20T00:08:21.240Z,19.70
2022-11-20T00:09:21.422Z,20.20
2022-11-20T00:10:21.208Z,20.30
2022-11-20T00:11:21.209Z,19.20
2022-11-20T00:12:21.187Z,20.10
2022-11-20T00:13:21.170Z,19.60
2022-11-20T00:14:21.157Z,20.30
2022-11-20T00:15:21.139Z,19.60
2022-11-20T00:16:21.149Z,19.30
2022-11-20T00:17:21.120Z,20.10
2022-11-20T00:18:21.106Z,20.30
2022-11-20T00:19:21.300Z,19.00
2022-11-20T00:20:21.088Z,20.50
2022-11-20T00:21:22.182Z,20.00
2022-11-20T00:22:21.058Z,19.50
2022-11-20T00:23:21.043Z,19.80
2022-11-20T00:24:21.026Z,19.90
2022-11-20T00:25:21.015Z,19.90
2022-11-20T00:26:21.000Z,19.20
2022-11-20T00:27:21.008Z,20.20
2022-11-20T00:28:20.977Z,19.60
2022-11-20T00:29:21.216Z,20.30
2022-11-20T00:30:20.950Z,19.90
2022-11-20T00:31:20.933Z,20.10
2022-11-20T00:32:21.151Z,21.00
2022-11-20T00:33:20.898Z,20.10
2022-11-20T00:34:20.907Z,20.20
2022-11-20T00:35:20.878Z,20.80
2022-11-20T00:36:20.869Z,20.80
2022-11-20T00:37:20.866Z,20.00
2022-11-20T00:38:20.840Z,20.30
2022-11-20T00:39:20.971Z,20.50
2022-11-20T00:40:20.828Z,20.60
2022-11-20T00:41:20.798Z,20.80
2022-11-20T00:42:20.809Z,20.30
2022-11-20T00:43:20.770Z,20.60
2022-11-20T00:44:20.768Z,20.70
2022-11-20T00:45:20.750Z,20.60
2022-11-20T00:46:20.755Z,21.00
2022-11-20T00:47:20.718Z,22.70
2022-11-20T00:48:20.716Z,21.80
2022-11-20T00:49:20.981Z,22.10
2022-11-20T00:50:20.705Z,21.00
2022-11-20T00:51:20.686Z,22.00
2022-11-20T00:52:20.660Z,20.70
2022-11-20T00:53:20.641Z,21.00
2022-11-20T00:54:20.633Z,20.30
2022-11-20T00:55:20.620Z,20.90
2022-11-20T00:56:20.628Z,21.80
2022-11-20T00:57:20.595Z,21.10
2022-11-20T00:58:20.590Z,20.50
2022-11-20T00:59:20.654Z,21.70
2022-11-20T01:00:20.550Z,21.40
2022-11-20T01:01:20.587Z,20.40
2022-11-20T01:02:20.540Z,20.70
2022-11-20T01:03:25.564Z,20.10
2022-11-20T01:04:21.503Z,20.80
2022-11-20T01:05:20.489Z,21.10
2022-11-20T01:06:20.491Z,20.60
2022-11-20T01:07:20.479Z,20.80
2022-11-20T01:08:20.449Z,21.80
2022-11-20T01:09:20.940Z,21.90
2022-11-20T01:10:20.423Z,21.00
2022-11-20T01:11:20.427Z,20.00
2022-11-20T01:12:20.401Z,20.40
2022-11-20T01:13:25.473Z,20.50
2022-11-20T01:14:21.382Z,21.20
2022-11-20T01:15:20.350Z,20.20
2022-11-20T01:16:20.361Z,21.50
2022-11-20T01:17:20.331Z,20.70
2022-11-20T01:18:20.318Z,20.90
2022-11-20T01:19:20.649Z,21.20
2022-11-20T01:20:20.290Z,21.50
2022-11-20T01:21:20.301Z,20.20
2022-11-20T01:22:20.275Z,21.00
2022-11-20T01:23:20.257Z,20.50
2022-11-20T01:24:20.243Z,21.40
2022-11-20T01:25:20.229Z,21.10
2022-11-20T01:26:20.232Z,21.50
2022-11-20T01:27:20.192Z,22.10
2022-11-20T01:28:20.191Z,21.80
2022-11-20T01:29:20.468Z,21.20
2022-11-20T01:30:20.164Z,21.20
2022-11-20T01:31:20.159Z,21.50
2022-11-20T01:32:20.140Z,20.60
2022-11-20T01:33:20.111Z,21.50
2022-11-20T01:34:20.121Z,21.20
2022-11-20T01:35:20.090Z,21.50
2022-11-20T01:36:20.100Z,21.40
2022-11-20T01:37:20.078Z,21.90
2022-11-20T01:38:20.060Z,20.90
2022-11-20T01:39:20.384Z,20.70
2022-11-20T01:40:20.039Z,21.70
2022-11-20T01:41:20.038Z,21.30
2022-11-20T01:42:20.013Z,21.10
2022-11-20T01:43:19.994Z,21.70
2022-11-20T01:44:19.982Z,21.80
2022-11-20T01:45:19.958Z,21.40
2022-11-20T01:46:19.951Z,21.40
2022-11-20T01:47:19.970Z,20.10
2022-11-20T01:48:19.935Z,21.00
2022-11-20T01:49:20.216Z,20.90
2022-11-20T01:50:19.901Z,21.10
2022-11-20T01:51:19.883Z,21.00
2022-11-20T01:52:19.900Z,21.60
2022-11-20T01:53:19.860Z,20.90
2022-11-20T01:54:19.858Z,22.10
2022-11-20T01:55:19.831Z,20.60
2022-11-20T01:56:19.840Z,22.20
2022-11-20T01:57:19.805Z,21.30
2022-11-20T01:58:19.803Z,21.80
2022-11-20T01:59:20.048Z,20.70
2022-11-20T02:00:19.766Z,21.70
2022-11-20T02:01:19.832Z,20.00
2022-11-20T02:02:19.743Z,21.20
2022-11-20T02:03:19.732Z,21.00
2022-11-20T02:04:19.714Z,20.80
2022-11-20T02:05:19.692Z,21.40
2022-11-20T02:06:19.714Z,21.20
2022-11-20T02:07:19.721Z,20.70
2022-11-20T02:08:19.672Z,21.60
2022-11-20T02:09:19.957Z,21.60
2022-11-20T02:10:19.642Z,22.00
2022-11-20T02:11:19.634Z,22.30
2022-11-20T02:12:19.612Z,22.00
2022-11-20T02:13:19.591Z,22.20
2022-11-20T02:14:19.595Z,22.60
2022-11-20T02:15:19.574Z,22.10
2022-11-20T02:16:19.577Z,22.00
2022-11-20T02:17:19.543Z,21.80
2022-11-20T02:18:19.543Z,21.80
2022-11-20T02:19:19.771Z,21.60
2022-11-20T02:20:19.515Z,21.20
2022-11-20T02:21:19.503Z,22.40
2022-11-20T02:22:19.480Z,21.10
2022-11-20T02:23:19.464Z,21.90
2022-11-20T02:24:19.467Z,22.00
2022-11-20T02:25:19.440Z,22.30
2022-11-20T02:26:19.442Z,22.40
2022-11-20T02:27:19.414Z,22.60
2022-11-20T02:28:19.421Z,22.50
2022-11-20T02:29:19.738Z,23.40
2022-11-20T02:30:19.380Z,22.30
2022-11-20T02:31:19.383Z,22.50
2022-11-20T02:32:19.352Z,23.00
2022-11-20T02:33:19.347Z,21.80
2022-11-20T02:34:19.324Z,22.50
2022-11-20T02:35:19.303Z,23.10
2022-11-20T02:36:19.306Z,22.50
2022-11-20T02:37:19.306Z,23.00
2022-11-20T02:38:19.274Z,23.00
2022-11-20T02:39:19.480Z,22.60
2022-11-20T02:40:19.245Z,23.00
2022-11-20T02:41:19.236Z,23.10
2022-11-20T02:42:19.235Z,22.40
2022-11-20T02:43:19.202Z,22.30
2022-11-20T02:44:19.193Z,23.00
2022-11-20T02:45:19.173Z,21.60
2022-11-20T02:46:19.173Z,22.30
2022-11-20T02:47:19.171Z,22.70
2022-11-20T02:48:19.151Z,22.10
2022-11-20T02:49:19.500Z,21.70
2022-11-20T02:50:19.120Z,22.10
2022-11-20T02:51:19.103Z,21.60
2022-11-20T02:52:19.103Z,21.90
2022-11-20T02:53:19.075Z,21.90
2022-11-20T02:54:19.063Z,21.80
2022-11-20T02:55:19.044Z,22.30
2022-11-20T02:56:19.035Z,22.60
2022-11-20T02:57:19.038Z,22.60
2022-11-20T02:58:19.014Z,23.30
2022-11-20T02:59:19.207Z,22.40
2022-11-20T03:00:18.995Z,23.10
2022-11-20T03:01:19.024Z,22.90
2022-11-20T03:02:26.722Z,22.20
2022-11-20T03:03:18.944Z,23.20
2022-11-20T03:04:18.931Z,22.70
2022-11-20T03:05:18.912Z,23.30
2022-11-20T03:06:18.911Z,23.20
2022-11-20T03:07:18.929Z,23.50
2022-11-20T03:08:18.881Z,23.10
2022-11-20T03:09:19.111Z,24.00
2022-11-20T03:10:18.851Z,24.20
2022-11-20T03:11:18.839Z,24.30
2022-11-20T03:12:18.848Z,24.50
2022-11-20T03:13:18.812Z,24.60
2022-11-20T03:14:18.804Z,24.60
2022-11-20T03:15:18.782Z,23.90
2022-11-20T03:16:18.774Z,24.70
2022-11-20T03:17:18.781Z,24.60
2022-11-20T03:18:18.755Z,24.50
2022-11-20T03:19:19.045Z,24.50
2022-11-20T03:20:18.723Z,24.70
2022-11-20T03:21:18.712Z,25.40
2022-11-20T03:22:18.712Z,25.70
2022-11-20T03:23:18.680Z,27.50
2022-11-20T03:24:18.673Z,26.50
2022-11-20T03:25:18.652Z,26.00
2022-11-20T03:26:18.644Z,25.80
2022-11-20T03:27:18.642Z,25.70
2022-11-20T03:28:18.622Z,27.70
2022-11-20T03:29:18.899Z,27.20
2022-11-20T03:30:18.592Z,27.20
2022-11-20T03:31:18.581Z,27.70
2022-11-20T03:32:18.585Z,27.40
2022-11-20T03:33:18.549Z,28.20
2022-11-20T03:34:18.543Z,27.30
2022-11-20T03:35:18.523Z,27.30
2022-11-20T03:36:18.526Z,26.90
2022-11-20T03:37:18.512Z,26.90
2022-11-20T03:38:18.492Z,27.20
2022-11-20T03:39:18.630Z,27.20
2022-11-20T03:40:18.464Z,26.50
2022-11-20T03:41:18.447Z,27.00
2022-11-20T03:42:18.451Z,26.10
2022-11-20T03:43:18.412Z,26.40
2022-11-20T03:44:18.403Z,26.30
2022-11-20T03:45:18.394Z,26.70
2022-11-20T03:46:18.383Z,26.40
2022-11-20T03:47:18.373Z,27.20
2022-11-20T03:48:18.355Z,27.90
2022-11-20T03:49:18.473Z,27.10
2022-11-20T03:50:18.324Z,26.00
2022-11-20T03:51:18.312Z,26.00
2022-11-20T03:52:18.315Z,26.80
2022-11-20T03:53:18.283Z,25.60
2022-11-20T03:54:18.263Z,25.60
2022-11-20T03:55:18.262Z,25.30
2022-11-20T03:56:18.241Z,25.90
2022-11-20T03:57:18.253Z,25.30
2022-11-20T03:58:18.221Z,25.30
2022-11-20T03:59:18.296Z,25.60
2022-11-20T04:00:18.182Z,24.40
2022-11-20T04:01:18.239Z,25.00
2022-11-20T04:02:18.265Z,24.30
2022-11-20T04:03:18.195Z,24.40
2022-11-20T04:04:18.132Z,23.90
2022-11-20T04:05:18.123Z,24.60
2022-11-20T04:06:18.110Z,24.70
2022-11-20T04:07:18.220Z,23.60
2022-11-20T04:08:18.093Z,25.40
2022-11-20T04:09:18.223Z,23.20
2022-11-20T04:10:18.054Z,23.90
2022-11-20T04:11:18.053Z,24.00
2022-11-20T04:12:18.049Z,24.60
2022-11-20T04:13:18.040Z,24.90
2022-11-20T04:14:18.001Z,23.70
2022-11-20T04:15:17.992Z,23.40
2022-11-20T04:16:17.972Z,24.40
2022-11-20T04:17:17.996Z,24.20
2022-11-20T04:18:18.003Z,23.50
2022-11-20T04:19:18.051Z,24.80
2022-11-20T04:20:17.922Z,23.30
2022-11-20T04:21:17.912Z,23.20
2022-11-20T04:22:17.913Z,22.90
2022-11-20T04:23:17.891Z,23.20
2022-11-20T04:24:17.882Z,24.40
2022-11-20T04:25:17.862Z,25.50
2022-11-20T04:26:17.845Z,24.80
2022-11-20T04:27:17.855Z,25.00
2022-11-20T04:28:17.813Z,23.30
2022-11-20T04:29:17.947Z,24.90
2022-11-20T04:30:17.793Z,24.40
2022-11-20T04:31:17.800Z,24.20
2022-11-20T04:32:17.763Z,23.90
2022-11-20T04:33:17.846Z,24.50
2022-11-20T04:34:17.735Z,24.80
2022-11-20T04:35:17.744Z,24.10
2022-11-20T04:36:17.744Z,24.40
2022-11-20T04:37:17.705Z,24.00
2022-11-20T04:38:17.785Z,24.10
2022-11-20T04:39:17.672Z,24.10
2022-11-20T04:40:17.653Z,25.50
2022-11-20T04:41:17.664Z,25.30
2022-11-20T04:42:17.633Z,24.90
2022-11-20T04:43:17.698Z,24.40
2022-11-20T04:44:17.614Z,24.70
2022-11-20T04:45:17.597Z,24.70
2022-11-20T04:46:17.592Z,24.30
2022-11-20T04:47:17.573Z,25.00
2022-11-20T04:48:17.543Z,24.10
2022-11-20T04:49:17.584Z,24.00
2022-11-20T04:50:17.523Z,24.10
2022-11-20T04:51:17.531Z,23.80
2022-11-20T04:52:17.493Z,24.30
2022-11-20T04:53:17.584Z,24.50
2022-11-20T04:54:17.464Z,24.50
2022-11-20T04:55:17.471Z,23.40
2022-11-20T04:56:17.464Z,23.80
2022-11-20T04:57:17.433Z,24.50
2022-11-20T04:58:17.417Z,25.40
2022-11-20T04:59:17.414Z,24.50
2022-11-20T05:00:17.394Z,23.50
2022-11-20T05:01:17.419Z,23.60
2022-11-20T05:02:17.363Z,23.80
2022-11-20T05:03:17.355Z,24.10
2022-11-20T05:04:17.334Z,24.60
2022-11-20T05:05:17.325Z,24.30
2022-11-20T05:06:17.323Z,23.40
2022-11-20T05:07:17.347Z,24.70
2022-11-20T05:08:17.284Z,24.40
2022-11-20T05:09:17.272Z,24.80
2022-11-20T05:10:17.253Z,23.90
2022-11-20T05:11:17.267Z,24.20
2022-11-20T05:12:17.236Z,24.70
2022-11-20T05:13:17.224Z,24.90
2022-11-20T05:14:17.204Z,24.30
2022-11-20T05:15:17.196Z,24.60
2022-11-20T05:16:17.193Z,23.80
2022-11-20T05:17:17.165Z,24.40
2022-11-20T05:18:17.143Z,25.00
2022-11-20T05:19:17.285Z,24.60
2022-11-20T05:20:17.124Z,24.10
2022-11-20T05:21:17.123Z,23.70
2022-11-20T05:22:17.102Z,25.30
2022-11-20T05:23:17.093Z,23.60
2022-11-20T05:24:17.075Z,24.40
2022-11-20T05:25:17.054Z,24.80
2022-11-20T05:26:17.063Z,24.50
2022-11-20T05:27:17.044Z,24.60
2022-11-20T05:28:17.020Z,24.90
2022-11-20T05:29:17.010Z,24.90
2022-11-20T05:30:16.993Z,24.80
2022-11-20T05:31:20.676Z,25.00
2022-11-20T05:32:17.965Z,24.10
2022-11-20T05:33:16.954Z,25.50
2022-11-20T05:34:16.943Z,25.40
2022-11-20T05:35:16.923Z,24.40
2022-11-20T05:36:16.924Z,24.80
2022-11-20T05:37:16.904Z,25.00
2022-11-20T05:38:16.911Z,23.40
2022-11-20T05:39:16.873Z,24.30
2022-11-20T05:40:16.854Z,25.00
2022-11-20T05:41:16.844Z,24.70
2022-11-20T05:42:16.853Z,23.80
2022-11-20T05:43:16.824Z,23.30
2022-11-20T05:44:16.810Z,23.40
2022-11-20T05:45:16.817Z,23.40
2022-11-20T05:46:16.783Z,23.80
2022-11-20T05:47:16.795Z,23.60
2022-11-20T05:48:16.755Z,23.20
2022-11-20T05:49:16.741Z,23.40
2022-11-20T05:50:16.725Z,23.80
2022-11-20T05:51:16.735Z,25.10
2022-11-20T05:52:16.695Z,24.00
2022-11-20T05:53:16.682Z,23.70
2022-11-20T05:54:16.672Z,24.50
2022-11-20T05:55:16.663Z,24.10
2022-11-20T05:56:16.655Z,23.80
2022-11-20T05:57:16.633Z,23.70
2022-11-20T05:58:16.615Z,23.80
2022-11-20T05:59:16.605Z,23.50
2022-11-20T06:00:16.583Z,24.50
2022-11-20T06:01:16.593Z,24.20
2022-11-20T06:02:16.585Z,24.80
2022-11-20T06:03:16.553Z,24.00
2022-11-20T06:04:16.534Z,24.10
2022-11-20T06:05:16.525Z,24.20
2022-11-20T06:06:16.540Z,24.50
2022-11-20T06:07:16.530Z,24.30
2022-11-20T06:08:16.484Z,25.20
2022-11-20T06:09:16.475Z,24.30
2022-11-20T06:10:16.459Z,24.70
2022-11-20T06:11:16.463Z,24.70
2022-11-20T06:12:16.425Z,25.20
2022-11-20T06:13:16.424Z,24.80
2022-11-20T06:14:16.404Z,24.10
2022-11-20T06:15:16.402Z,25.80
2022-11-20T06:16:16.396Z,25.00
2022-11-20T06:17:16.363Z,24.50
2022-11-20T06:18:16.344Z,24.80
2022-11-20T06:19:16.340Z,24.00
2022-11-20T06:20:16.343Z,24.20
2022-11-20T06:21:16.314Z,24.70
2022-11-20T06:22:16.295Z,24.90
2022-11-20T06:23:16.294Z,23.80
2022-11-20T06:24:16.277Z,24.30
2022-11-20T06:25:16.283Z,25.00
2022-11-20T06:26:16.246Z,24.40
2022-11-20T06:27:16.235Z,24.90
2022-11-20T06:28:16.215Z,24.90
2022-11-20T06:29:16.211Z,25.00
2022-11-20T06:30:16.208Z,23.30
2022-11-20T06:31:16.184Z,24.40
2022-11-20T06:32:16.162Z,24.50
2022-11-20T06:33:16.156Z,24.10
2022-11-20T06:34:16.135Z,24.80
2022-11-20T06:35:16.184Z,25.00
2022-11-20T06:36:16.111Z,23.60
2022-11-20T06:37:16.104Z,24.40
2022-11-20T06:38:16.085Z,24.40
2022-11-20T06:39:16.081Z,24.40
2022-11-20T06:40:16.073Z,24.10
2022-11-20T06:41:16.051Z,24.50
2022-11-20T06:42:16.046Z,24.00
2022-11-20T06:43:16.024Z,24.90
2022-11-20T06:44:16.015Z,24.60
2022-11-20T06:45:16.015Z,24.40
2022-11-20T06:46:15.984Z,25.10
2022-11-20T06:47:15.975Z,24.90
2022-11-20T06:48:15.954Z,24.40
2022-11-20T06:49:15.943Z,25.00
2022-11-20T06:50:15.944Z,24.70
2022-11-20T06:51:15.915Z,25.30
2022-11-20T06:52:15.903Z,25.10
2022-11-20T06:53:15.895Z,24.80
2022-11-20T06:54:15.883Z,25.30
2022-11-20T06:55:15.885Z,24.80
2022-11-20T06:56:15.843Z,26.10
2022-11-20T06:57:15.835Z,26.40
2022-11-20T06:58:15.825Z,26.80
2022-11-20T06:59:15.826Z,28.00
2022-11-20T07:00:15.834Z,27.40
2022-11-20T07:01:15.886Z,27.90
2022-11-20T07:02:15.764Z,27.90
2022-11-20T07:03:15.754Z,28.10
2022-11-20T07:04:15.743Z,28.40
2022-11-20T07:05:15.754Z,28.50
2022-11-20T07:06:15.715Z,28.70
2022-11-20T07:07:15.722Z,27.70
2022-11-20T07:08:15.686Z,26.90
2022-11-20T07:09:15.675Z,28.20
2022-11-20T07:10:15.674Z,29.20
2022-11-20T07:11:15.689Z,28.60
2022-11-20T07:12:15.634Z,27.80
2022-11-20T07:13:15.625Z,28.10
2022-11-20T07:14:15.604Z,27.50
2022-11-20T07:15:15.614Z,26.30
2022-11-20T07:16:15.588Z,27.00
2022-11-20T07:17:15.575Z,27.90
2022-11-20T07:18:15.554Z,27.40
2022-11-20T07:19:15.864Z,26.90
2022-11-20T07:20:15.545Z,26.80
2022-11-20T07:21:15.514Z,26.20
2022-11-20T07:22:15.505Z,26.40
2022-11-20T07:23:15.494Z,26.40
2022-11-20T07:24:15.476Z,26.80
2022-11-20T07:25:15.493Z,27.00
2022-11-20T07:26:15.446Z,27.60
2022-11-20T07:27:15.444Z,26.20
2022-11-20T07:28:15.423Z,27.70
2022-11-20T07:29:15.415Z,27.70
2022-11-20T07:30:15.432Z,26.90
2022-11-20T07:31:19.043Z,27.80
2022-11-20T07:32:15.375Z,28.10
2022-11-20T07:33:15.361Z,28.40
2022-11-20T07:34:15.353Z,29.10
2022-11-20T07:35:15.358Z,29.70
2022-11-20T07:36:15.319Z,27.90
2022-11-20T07:37:15.313Z,28.00
2022-11-20T07:38:15.287Z,28.40
2022-11-20T07:39:15.285Z,27.80
2022-11-20T07:40:15.276Z,28.40
2022-11-20T07:41:15.255Z,28.20
2022-11-20T07:42:15.235Z,29.60
2022-11-20T07:43:15.229Z,30.20
2022-11-20T07:44:15.217Z,28.60
2022-11-20T07:45:15.222Z,28.30
2022-11-20T07:46:15.187Z,27.90
2022-11-20T07:47:15.175Z,27.20
2022-11-20T07:48:15.165Z,27.40
2022-11-20T07:49:15.145Z,28.80
2022-11-20T07:50:15.149Z,27.70
2022-11-20T07:51:15.118Z,27.80
2022-11-20T07:52:15.104Z,27.70
2022-11-20T07:53:15.094Z,27.10
2022-11-20T07:54:15.076Z,26.80
2022-11-20T07:55:15.084Z,27.10
2022-11-20T07:56:15.056Z,27.10
2022-11-20T07:57:15.043Z,27.30
2022-11-20T07:58:15.026Z,26.70
2022-11-20T07:59:15.034Z,26.90
2022-11-20T08:00:15.001Z,26.20
2022-11-20T08:01:15.021Z,27.20
2022-11-20T08:02:14.967Z,26.20
2022-11-20T08:03:15.770Z,25.70
2022-11-20T08:04:14.967Z,25.80
2022-11-20T08:05:14.935Z,26.10
2022-11-20T08:06:14.915Z,25.50
2022-11-20T08:07:14.958Z,26.30
2022-11-20T08:08:14.896Z,25.40
2022-11-20T08:09:14.895Z,24.70
2022-11-20T08:10:14.865Z,24.40
2022-11-20T08:11:14.865Z,25.20
2022-11-20T08:12:14.848Z,25.10
2022-11-20T08:13:14.825Z,25.10
2022-11-20T08:14:14.849Z,25.00
2022-11-20T08:15:14.794Z,24.30
2022-11-20T08:16:14.786Z,24.20
2022-11-20T08:17:14.768Z,23.80
2022-11-20T08:18:32.242Z,24.80
2022-11-20T08:19:15.766Z,25.20
2022-11-20T08:20:14.735Z,25.00
2022-11-20T08:21:14.723Z,24.90
2022-11-20T08:22:14.715Z,24.30
2022-11-20T08:23:14.696Z,24.40
2022-11-20T08:24:14.695Z,23.80
2022-11-20T08:25:14.666Z,23.00
2022-11-20T08:26:14.656Z,23.70
2022-11-20T08:27:14.647Z,24.40
2022-11-20T08:28:20.845Z,24.90
2022-11-20T08:29:15.626Z,23.40
2022-11-20T08:30:14.606Z,24.60
2022-11-20T08:31:14.597Z,25.40
2022-11-20T08:32:14.585Z,24.60
2022-11-20T08:33:14.567Z,23.40
2022-11-20T08:34:18.782Z,23.70
2022-11-20T08:35:14.538Z,24.30
2022-11-20T08:36:14.526Z,24.70
2022-11-20T08:37:14.514Z,24.60
2022-11-20T08:38:14.498Z,24.10
2022-11-20T08:39:14.497Z,24.20
2022-11-20T08:40:19.325Z,24.80
2022-11-20T08:41:15.457Z,24.00
2022-11-20T08:42:14.447Z,23.50
2022-11-20T08:43:14.426Z,23.40
2022-11-20T08:44:14.438Z,24.40
2022-11-20T08:45:14.406Z,24.20
2022-11-20T08:46:14.399Z,24.20
2022-11-20T08:47:14.378Z,24.70
2022-11-20T08:48:14.368Z,24.20
2022-11-20T08:49:14.367Z,24.40
2022-11-20T08:50:14.344Z,24.50
2022-11-20T08:51:14.329Z,25.10
2022-11-20T08:52:14.317Z,41.30
2022-11-20T08:53:14.298Z,33.20
2022-11-20T08:54:14.308Z,26.80
2022-11-20T08:55:14.277Z,24.80
2022-11-20T08:56:14.267Z,25.10
2022-11-20T08:57:14.246Z,24.50
2022-11-20T08:58:14.248Z,23.60
2022-11-20T08:59:27.392Z,23.60
2022-11-20T09:00:15.215Z,24.10
2022-11-20T09:01:14.234Z,24.00
2022-11-20T09:02:14.187Z,24.40
2022-11-20T09:04:24.079Z,24.40
2022-11-20T09:05:23.963Z,24.20
2022-11-20T09:06:23.955Z,24.00
2022-11-20T09:07:24.001Z,24.70
2022-11-20T09:08:23.937Z,24.80
2022-11-20T09:09:24.154Z,23.80
2022-11-20T09:10:24.835Z,23.30
2022-11-20T09:11:24.007Z,24.30
2022-11-20T09:12:23.874Z,23.30
2022-11-20T09:13:23.872Z,23.10
2022-11-20T09:14:23.844Z,23.00
2022-11-20T09:15:23.836Z,23.50
2022-11-20T09:16:23.822Z,32.50
2022-11-20T09:17:23.806Z,29.00
2022-11-20T09:18:23.815Z,24.60
2022-11-20T09:19:39.019Z,23.90
2022-11-20T09:20:24.766Z,22.50
2022-11-20T09:21:23.836Z,21.40
2022-11-20T09:22:23.743Z,21.20
2022-11-20T09:23:23.753Z,20.40
2022-11-20T09:24:23.714Z,20.00
2022-11-20T09:25:23.695Z,18.10
2022-11-20T09:26:23.693Z,18.90
2022-11-20T09:27:23.676Z,18.50
2022-11-20T09:28:23.664Z,17.60
2022-11-20T09:29:23.845Z,17.10
2022-11-20T09:30:23.636Z,17.80
2022-11-20T09:31:23.615Z,17.20
2022-11-20T09:32:23.614Z,17.80
2022-11-20T09:33:23.585Z,18.30
2022-11-20T09:34:23.604Z,18.70
2022-11-20T09:35:23.556Z,19.20
2022-11-20T09:36:23.554Z,19.70
2022-11-20T09:37:23.535Z,20.00
2022-11-20T09:38:23.536Z,20.60
2022-11-20T09:39:23.965Z,21.10
2022-11-20T09:40:23.507Z,20.20
2022-11-20T09:41:23.484Z,21.00
2022-11-20T09:42:23.465Z,20.20
2022-11-20T09:43:23.455Z,21.30
2022-11-20T09:44:23.472Z,21.20
2022-11-20T09:45:23.425Z,22.10
2022-11-20T09:46:23.416Z,20.40
2022-11-20T09:47:23.395Z,19.40
2022-11-20T09:48:23.388Z,19.50
2022-11-20T09:49:26.346Z,19.40
2022-11-20T09:50:24.364Z,18.60
2022-11-20T09:51:23.348Z,19.60
2022-11-20T09:52:23.326Z,19.00
2022-11-20T09:53:23.324Z,19.40
2022-11-20T09:54:23.326Z,18.40
2022-11-20T09:55:23.294Z,18.30
2022-11-20T09:56:23.278Z,18.80
2022-11-20T09:57:23.267Z,19.40
2022-11-20T09:58:23.275Z,19.20
2022-11-20T09:59:23.559Z,20.00
2022-11-20T10:00:23.215Z,19.10
2022-11-20T10:01:23.400Z,19.40
2022-11-20T10:02:23.196Z,19.40
2022-11-20T10:03:23.197Z,19.70
2022-11-20T10:04:23.168Z,20.00
2022-11-20T10:05:23.157Z,20.10
2022-11-20T10:06:23.144Z,20.00
2022-11-20T10:07:32.375Z,21.20
2022-11-20T10:08:24.173Z,20.40
2022-11-20T10:09:23.472Z,21.00
2022-11-20T10:10:23.091Z,20.30
2022-11-20T10:11:23.077Z,21.60
2022-11-20T10:12:23.062Z,20.80
2022-11-20T10:13:23.088Z,20.30
2022-11-20T10:14:23.040Z,20.00
2022-11-20T10:15:23.027Z,20.00
2022-11-20T10:16:23.007Z,21.00
2022-11-20T10:17:23.006Z,19.50
2022-11-20T10:18:22.978Z,19.80
2022-11-20T10:19:23.266Z,19.20
2022-11-20T10:20:22.951Z,19.40
2022-11-20T10:21:22.947Z,19.30
2022-11-20T10:22:22.927Z,19.70
2022-11-20T10:23:25.752Z,19.40
2022-11-20T10:24:22.919Z,18.90
2022-11-20T10:25:22.888Z,19.60
2022-11-20T10:26:22.867Z,19.80
2022-11-20T10:27:22.858Z,19.70
2022-11-20T10:28:22.847Z,20.30
2022-11-20T10:29:23.127Z,19.40
2022-11-20T10:30:22.817Z,19.80
2022-11-20T10:31:22.807Z,20.70
2022-11-20T10:32:22.788Z,20.10
2022-11-20T10:33:22.788Z,18.00
2022-11-20T10:34:23.432Z,19.10
2022-11-20T10:35:22.758Z,18.00
2022-11-20T10:36:22.738Z,19.10
2022-11-20T10:37:22.728Z,18.70
2022-11-20T10:38:22.716Z,18.50
2022-11-20T10:39:23.021Z,18.50
2022-11-20T10:40:22.688Z,18.90
2022-11-20T10:41:22.679Z,19.50
2022-11-20T10:42:22.660Z,19.10
2022-11-20T10:43:22.649Z,20.20
2022-11-20T10:44:22.912Z,19.10
2022-11-20T10:45:22.628Z,19.30
2022-11-20T10:46:22.610Z,19.90
2022-11-20T10:47:22.619Z,19.20
2022-11-20T10:48:22.579Z,20.20
2022-11-20T10:49:22.878Z,20.20
2022-11-20T10:50:22.969Z,19.30
2022-11-20T10:51:22.556Z,20.20
2022-11-20T10:52:22.520Z,19.90
2022-11-20T10:53:22.519Z,19.80
2022-11-20T10:54:22.520Z,19.80
2022-11-20T10:55:22.490Z,19.60
2022-11-20T10:56:22.481Z,20.00
2022-11-20T10:57:22.462Z,19.10
2022-11-20T10:58:22.457Z,21.40
2022-11-20T10:59:22.688Z,19.70
2022-11-20T11:00:22.432Z,19.50
2022-11-20T11:01:22.577Z,19.30
2022-11-20T11:02:22.392Z,19.20
2022-11-20T11:03:22.399Z,19.60
2022-11-20T11:04:22.360Z,19.90
2022-11-20T11:05:22.359Z,20.30
2022-11-20T11:06:22.340Z,20.50
2022-11-20T11:07:22.381Z,20.60
2022-11-20T11:08:22.330Z,20.20
2022-11-20T11:09:22.492Z,20.50
2022-11-20T11:10:22.280Z,21.70
2022-11-20T11:11:22.280Z,21.10
2022-11-20T11:12:22.261Z,20.80
2022-11-20T11:13:22.250Z,21.80
2022-11-20T11:14:22.251Z,20.70
2022-11-20T11:15:22.231Z,21.80
2022-11-20T11:16:22.210Z,21.00
2022-11-20T11:17:22.200Z,21.30
2022-11-20T11:18:22.180Z,20.90
2022-11-20T11:19:22.569Z,20.40
2022-11-20T11:20:22.153Z,20.90
2022-11-20T11:21:22.149Z,20.50
2022-11-20T11:22:22.120Z,20.50
2022-11-20T11:23:22.121Z,21.00
2022-11-20T11:24:40.915Z,20.60
2022-11-20T11:25:23.092Z,21.10
2022-11-20T11:26:22.073Z,20.40
2022-11-20T11:27:22.062Z,20.90
2022-11-20T11:28:22.043Z,20.60
2022-11-20T11:29:22.422Z,19.60
2022-11-20T11:30:22.031Z,21.40
2022-11-20T11:31:22.012Z,20.00
2022-11-20T11:32:21.997Z,21.00
2022-11-20T11:33:21.985Z,20.90
2022-11-20T11:34:21.992Z,20.60
2022-11-20T11:35:21.961Z,19.90
2022-11-20T11:36:21.932Z,20.60
2022-11-20T11:37:21.933Z,20.40
2022-11-20T11:38:21.919Z,20.50
2022-11-20T11:39:22.205Z,20.40
2022-11-20T11:40:24.413Z,20.70
2022-11-20T11:41:21.875Z,20.90
2022-11-20T11:42:21.861Z,20.70
2022-11-20T11:43:21.853Z,20.60
2022-11-20T11:44:21.842Z,19.60
2022-11-20T11:45:21.822Z,20.50
2022-11-20T11:46:21.814Z,20.40
2022-11-20T11:47:21.800Z,20.10
2022-11-20T11:48:21.783Z,20.40
2022-11-20T11:49:22.072Z,19.90
2022-11-20T11:50:21.753Z,19.30
2022-11-20T11:51:21.745Z,19.80
2022-11-20T11:52:21.723Z,19.40
2022-11-20T11:53:21.715Z,19.40
2022-11-20T11:54:21.723Z,19.90
2022-11-20T11:55:21.690Z,20.00
2022-11-20T11:56:21.673Z,19.50
2022-11-20T11:57:21.663Z,20.60
2022-11-20T11:58:21.656Z,20.20
2022-11-20T11:59:21.970Z,20.00
2022-11-20T12:00:21.613Z,19.80
2022-11-20T12:01:21.605Z,19.60
2022-11-20T12:02:21.626Z,19.10
2022-11-20T12:03:21.580Z,19.70
2022-11-20T12:04:21.586Z,19.30
2022-11-20T12:05:21.553Z,19.30
2022-11-20T12:06:21.533Z,19.70
2022-11-20T12:08:22.530Z,19.20
2022-11-20T12:09:21.755Z,19.40
2022-11-20T12:10:21.495Z,19.80
2022-11-20T12:11:21.473Z,19.50
2022-11-20T12:12:21.452Z,19.20
2022-11-20T12:13:21.445Z,19.70
2022-11-20T12:14:21.442Z,19.70
2022-11-20T12:15:21.413Z,19.20
2022-11-20T12:16:21.411Z,19.80
2022-11-20T12:17:21.394Z,20.20
2022-11-20T12:18:21.394Z,19.50
2022-11-20T12:19:21.730Z,21.20
2022-11-20T12:20:21.354Z,20.40
2022-11-20T12:21:21.334Z,19.90
2022-11-20T12:22:21.314Z,19.40
2022-11-20T12:23:21.313Z,19.90
2022-11-20T12:24:21.315Z,20.90
2022-11-20T12:25:21.274Z,20.10
2022-11-20T12:26:21.265Z,20.30
2022-11-20T12:27:21.258Z,20.00
2022-11-20T12:28:21.235Z,20.40
2022-11-20T12:29:21.428Z,20.20
2022-11-20T12:30:21.205Z,20.70
2022-11-20T12:31:21.203Z,20.40
2022-11-20T12:32:21.185Z,20.50
2022-11-20T12:33:21.175Z,20.60
2022-11-20T12:34:21.165Z,20.00
2022-11-20T12:35:21.155Z,20.20
2022-11-20T12:36:21.145Z,21.10
2022-11-20T12:37:21.125Z,20.50
2022-11-20T12:38:21.107Z,20.30
2022-11-20T12:39:21.250Z,20.90
2022-11-20T12:40:21.073Z,20.70
2022-11-20T12:41:21.066Z,21.00
2022-11-20T12:42:21.066Z,20.70
2022-11-20T12:43:21.054Z,21.10
2022-11-20T12:44:21.026Z,19.90
2022-11-20T12:45:21.017Z,21.30
2022-11-20T12:46:20.997Z,20.20
2022-11-20T12:47:21.004Z,20.60
2022-11-20T12:48:20.967Z,20.80
2022-11-20T12:49:21.261Z,20.80
2022-11-20T12:50:20.937Z,21.10
2022-11-20T12:51:21.050Z,20.20
2022-11-20T12:52:20.936Z,19.70
2022-11-20T12:53:20.906Z,21.60
2022-11-20T12:54:20.887Z,22.60